Time;durP1;ratioP1;P1;durP2;ratioP2;P2;SDS_P1;SDS_P2;PMS_P1;PMS_P2;Temp;Humidity;BMP_temperature;BMP_pressure;BME280_temperature;BME280_humidity;BME280_pressure;Samples;Min_cycle;Max_cycle;Signal;HPM_P1;HPM_P2
2023/06/01 00:02:15;;;;;;;55.33;3.00;;;;;;;24.98;41.55;99716.16;7313979;19;130109;-41
2023/06/01 00:04:41;;;;;;;71.97;3.67;;;;;;;24.92;41.65;99716.81;7314265;19;129793;-42
2023/06/01 00:07:07;;;;;;;71.20;3.97;;;;;;;24.94;42.18;99714.84;7314757;19;129310;-42
2023/06/01 00:09:33;;;;;;;36.17;2.03;;;;;;;24.96;42.20;99721.59;7315732;19;129053;-40
2023/06/01 00:11:58;;;;;;;30.50;1.80;;;;;;;24.85;42.46;99711.34;7314650;19;130467;-42
2023/06/01 00:14:24;;;;;;;43.43;2.43;;;;;;;24.76;41.04;99716.75;7314486;19;131253;-41
2023/06/01 00:16:51;;;;;;;40.83;2.30;;;;;;;24.87;41.52;99719.91;7314266;19;128966;-40
2023/06/01 00:19:17;;;;;;;30.35;1.73;;;;;;;24.89;41.60;99715.31;7312836;19;129129;-38
2023/06/01 00:21:43;;;;;;;27.87;1.50;;;;;;;24.77;42.40;99705.22;7311373;19;129651;-41
2023/06/01 00:24:08;;;;;;;49.27;2.40;;;;;;;24.94;41.78;99715.66;7314970;19;129697;-40
2023/06/01 00:26:34;;;;;;;30.67;1.77;;;;;;;24.89;42.84;99711.88;7315161;19;128799;-40
2023/06/01 00:29:00;;;;;;;29.50;1.67;;;;;;;24.96;42.54;99720.75;7314989;19;129028;-39
2023/06/01 00:31:26;;;;;;;36.42;2.05;;;;;;;24.95;41.03;99711.22;7313214;19;129877;-38
2023/06/01 00:33:52;;;;;;;33.60;2.00;;;;;;;24.92;41.97;99706.28;7313685;19;130022;-42
2023/06/01 00:36:17;;;;;;;26.13;1.53;;;;;;;24.91;41.81;99712.50;7314116;19;128942;-40
2023/06/01 00:38:43;;;;;;;24.73;1.37;;;;;;;24.95;41.81;99700.69;7312115;19;129062;-41
2023/06/01 00:41:08;;;;;;;30.10;1.63;;;;;;;24.92;41.75;99708.91;7306941;19;130016;-40
2023/06/01 00:43:33;;;;;;;44.22;2.28;;;;;;;24.93;41.81;99707.91;7311503;19;130247;-42
2023/06/01 00:45:59;;;;;;;40.97;2.40;;;;;;;24.88;41.38;99711.03;7313121;19;129324;-40
2023/06/01 00:48:25;;;;;;;22.73;1.33;;;;;;;24.98;42.32;99705.66;7313791;19;128862;-40
2023/06/01 00:50:50;;;;;;;35.20;2.00;;;;;;;24.84;42.09;99688.66;7312551;19;129411;-40
2023/06/01 00:53:20;;;;;;;44.33;2.37;;;;;;;24.95;42.33;99705.97;7310470;19;129885;-42
2023/06/01 00:55:46;;;;;;;21.70;1.38;;;;;;;24.99;42.02;99708.09;7312138;19;128846;-40
2023/06/01 00:58:12;;;;;;;47.00;2.63;;;;;;;24.99;41.30;99709.94;7312708;19;130264;-41
2023/06/01 01:00:38;;;;;;;25.52;1.52;;;;;;;24.98;42.84;99701.22;7310786;19;130172;-40
2023/06/01 01:03:07;;;;;;;45.00;2.40;;;;;;;24.85;41.10;99698.22;7312706;19;129443;-41
2023/06/01 01:05:33;;;;;;;44.30;2.47;;;;;;;24.90;41.87;99688.03;7312460;19;130205;-39
2023/06/01 01:08:24;;;;;;;25.27;1.45;;;;;;;25.00;42.29;99703.69;7314194;19;128773;-40
2023/06/01 01:11:15;;;;;;;24.25;1.35;;;;;;;24.83;41.87;99694.06;7312745;19;129293;-38
2023/06/01 01:14:01;;;;;;;29.92;1.67;;;;;;;24.91;41.67;99710.72;7309911;19;129806;-38
2023/06/01 01:16:30;;;;;;;29.05;1.60;;;;;;;24.92;41.59;99717.63;7313383;19;129138;-40
2023/06/01 01:19:34;;;;;;;18.65;1.02;;;;;;;24.88;42.33;99716.28;7310492;19;129095;-40
2023/06/01 01:22:26;;;;;;;27.65;1.58;;;;;;;25.01;42.96;99714.03;7311160;19;129630;-41
2023/06/01 01:25:07;;;;;;;27.20;1.65;;;;;;;24.92;42.81;99707.13;7311353;19;130436;-41
2023/06/01 01:27:59;;;;;;;20.20;1.40;;;;;;;24.94;41.95;99712.22;7312304;19;129038;-39
2023/06/01 01:30:28;;;;;;;27.45;1.55;;;;;;;24.92;41.48;99708.91;7312556;19;128800;-39
2023/06/01 01:32:56;;;;;;;25.02;1.65;;;;;;;24.93;41.85;99718.44;7310103;19;130017;-39
2023/06/01 01:35:23;;;;;;;82.47;4.57;;;;;;;24.83;41.03;99709.84;7305479;19;129918;-38
2023/06/01 01:37:53;;;;;;;33.10;1.75;;;;;;;24.96;41.91;99704.97;7310644;19;128844;-39
2023/06/01 01:40:18;;;;;;;50.35;2.88;;;;;;;24.98;41.12;99710.91;7310605;19;129041;-38
2023/06/01 01:42:44;;;;;;;26.33;1.50;;;;;;;24.98;41.72;99709.09;7309858;19;130341;-38
2023/06/01 01:45:10;;;;;;;60.43;3.30;;;;;;;25.02;41.38;99705.19;7310080;19;129431;-38
2023/06/01 01:47:51;;;;;;;33.63;1.73;;;;;;;24.94;43.00;99704.31;7313070;19;129866;-39
2023/06/01 01:50:20;;;;;;;39.35;2.13;;;;;;;24.99;41.36;99702.03;7311566;19;128987;-39
2023/06/01 01:52:48;;;;;;;32.58;1.80;;;;;;;24.97;41.37;99699.56;7309444;19;129155;-38
2023/06/01 01:55:15;;;;;;;37.53;2.05;;;;;;;24.98;41.55;99695.97;7312417;19;129263;-38
2023/06/01 01:57:41;;;;;;;43.22;2.40;;;;;;;24.96;41.46;99697.09;7310940;19;129069;-39
2023/06/01 02:00:07;;;;;;;19.17;1.27;;;;;;;24.95;41.56;99690.19;7311201;19;129331;-39
2023/06/01 02:02:33;;;;;;;28.95;1.65;;;;;;;24.95;41.19;99690.19;7309835;19;130737;-39
2023/06/01 02:04:58;;;;;;;13.00;0.90;;;;;;;24.99;41.84;99694.97;7311782;19;129593;-38
2023/06/01 02:07:23;;;;;;;78.67;4.37;;;;;;;24.89;41.51;99685.56;7311573;19;129967;-39
2023/06/01 02:09:49;;;;;;;62.13;3.43;;;;;;;24.90;41.49;99692.47;7312180;19;129897;-39
2023/06/01 02:12:15;;;;;;;23.23;1.43;;;;;;;24.94;41.89;99683.28;7309527;19;129465;-39
2023/06/01 02:14:40;;;;;;;33.17;1.80;;;;;;;24.94;41.97;99686.72;7311757;19;129469;-38
2023/06/01 02:17:07;;;;;;;40.60;2.10;;;;;;;24.92;41.27;99680.00;7310708;19;129821;-39
2023/06/01 02:19:33;;;;;;;28.27;1.73;;;;;;;24.97;42.69;99682.97;7310302;19;129053;-39
2023/06/01 02:21:58;;;;;;;87.17;5.27;;;;;;;24.95;41.62;99675.22;7307402;19;129194;-39
2023/06/01 02:24:23;;;;;;;29.93;1.60;;;;;;;24.82;41.57;99663.50;7309817;19;130361;-39
2023/06/01 02:26:51;;;;;;;52.20;3.07;;;;;;;24.97;41.91;99677.69;7311537;19;128799;-39
2023/06/01 02:29:19;;;;;;;36.47;2.03;;;;;;;24.89;41.43;99681.09;7309841;19;128890;-39
2023/06/01 02:31:45;;;;;;;16.38;1.13;;;;;;;24.89;40.98;99675.03;7310019;19;129758;-38
2023/06/01 02:34:10;;;;;;;36.53;2.07;;;;;;;24.89;41.30;99675.03;7310261;19;129672;-39
2023/06/01 02:36:36;;;;;;;51.15;2.63;;;;;;;24.81;41.65;99649.53;7310596;19;128852;-40
2023/06/01 02:39:01;;;;;;;5.53;0.70;;;;;;;24.95;41.32;99664.72;7309810;19;128989;-38
2023/06/01 02:41:27;;;;;;;52.03;2.72;;;;;;;24.96;41.53;99660.25;7310336;19;130121;-38
2023/06/01 02:43:52;;;;;;;38.80;2.03;;;;;;;24.95;42.05;99654.19;7308033;19;131289;-39
2023/06/01 02:46:18;;;;;;;36.67;1.97;;;;;;;25.00;41.78;99661.59;7311127;19;128901;-38
2023/06/01 02:48:44;;;;;;;27.43;1.63;;;;;;;25.03;41.49;99658.63;7309587;19;129403;-38
2023/06/01 02:51:10;;;;;;;37.60;2.10;;;;;;;24.91;41.54;99659.91;7308378;19;129173;-39
2023/06/01 02:53:35;;;;;;;41.33;2.10;;;;;;;25.02;42.77;99668.34;7315038;19;131062;-39
2023/06/01 02:56:01;;;;;;;38.20;2.03;;;;;;;24.87;41.92;99646.28;7316800;19;129432;-38
2023/06/01 02:58:29;;;;;;;59.70;3.57;;;;;;;24.96;41.40;99655.00;7315263;19;129218;-38
2023/06/01 03:00:55;;;;;;;19.73;1.10;;;;;;;24.95;41.95;99659.44;7315439;19;129426;-38
2023/06/01 03:03:20;;;;;;;40.90;2.13;;;;;;;24.87;41.89;99651.53;7314819;19;129261;-38
2023/06/01 03:05:47;;;;;;;45.03;2.23;;;;;;;25.01;42.33;99653.53;7316920;19;129333;-38
2023/06/01 03:08:13;;;;;;;55.92;2.88;;;;;;;24.99;41.87;99666.03;7316195;19;129072;-38
2023/06/01 03:10:39;;;;;;;27.30;1.57;;;;;;;24.92;41.59;99662.41;7313725;19;129111;-38
2023/06/01 03:13:04;;;;;;;55.88;2.95;;;;;;;24.91;41.72;99652.84;7314027;19;129666;-39
2023/06/01 03:15:29;;;;;;;31.73;1.73;;;;;;;25.00;41.51;99658.97;7313092;19;128971;-40
2023/06/01 03:17:55;;;;;;;8.67;0.80;;;;;;;24.96;42.03;99652.38;7316645;19;129174;-39
2023/06/01 03:20:20;;;;;;;63.40;3.60;;;;;;;24.96;41.53;99645.31;7314564;19;129173;-39
2023/06/01 03:22:46;;;;;;;47.73;2.50;;;;;;;24.96;41.01;99655.81;7315230;19;129384;-39
2023/06/01 03:25:12;;;;;;;12.97;0.80;;;;;;;24.96;41.41;99666.34;7316195;19;128809;-38
2023/06/01 03:27:38;;;;;;;36.33;2.03;;;;;;;24.99;41.47;99659.97;7315742;19;129299;-39
2023/06/01 03:30:09;;;;;;;24.13;1.33;;;;;;;24.94;41.45;99662.25;7314926;19;129353;-39
2023/06/01 03:32:36;;;;;;;48.75;2.58;;;;;;;25.04;41.45;99668.19;7314889;19;130434;-39
2023/06/01 03:35:01;;;;;;;;;;;;;;;25.03;42.00;99669.16;7316648;19;128941;-38
2023/06/01 03:37:26;;;;;;;40.50;2.10;;;;;;;25.04;41.99;99668.19;7315781;19;128959;-37
2023/06/01 03:39:52;;;;;;;27.03;1.77;;;;;;;25.06;41.90;99669.66;7312680;19;129402;-38
2023/06/01 03:42:19;;;;;;;69.77;3.63;;;;;;;25.05;40.89;99672.47;7314213;19;131059;-39
2023/06/01 03:44:45;;;;;;;25.67;1.38;;;;;;;25.04;41.54;99665.56;7315914;19;129974;-39
2023/06/01 03:47:10;;;;;;;15.40;0.93;;;;;;;25.00;41.31;99666.84;7316007;19;128978;-38
2023/06/01 03:49:35;;;;;;;31.17;1.67;;;;;;;25.05;41.27;99669.84;7314691;19;128961;-38
2023/06/01 03:52:01;;;;;;;31.97;1.80;;;;;;;24.98;41.90;99659.13;7313940;19;131036;-39
2023/06/01 03:54:26;;;;;;;29.40;1.60;;;;;;;24.99;41.17;99660.75;7316297;19;129266;-38
2023/06/01 03:56:52;;;;;;;28.35;1.63;;;;;;;24.94;40.83;99652.53;7316343;19;128881;-37
2023/06/01 03:59:17;;;;;;;29.97;1.63;;;;;;;24.98;41.57;99660.94;7312365;19;129155;-40
2023/06/01 04:01:43;;;;;;;45.77;2.20;;;;;;;24.97;41.91;99657.50;7313174;19;130430;-38
2023/06/01 04:04:08;;;;;;;30.30;1.67;;;;;;;25.01;42.43;99657.97;7315289;19;130422;-39
2023/06/01 04:06:37;;;;;;;25.33;1.40;;;;;;;25.04;41.37;99658.47;7312214;19;129937;-39
2023/06/01 04:09:06;;;;;;;46.85;2.50;;;;;;;24.97;41.68;99657.50;7313764;19;129232;-38
2023/06/01 04:11:35;;;;;;;47.83;2.45;;;;;;;25.00;41.99;99664.22;7309849;19;129449;-39
2023/06/01 04:14:01;;;;;;;27.48;1.48;;;;;;;25.06;41.28;99671.47;7315912;19;129692;-38
2023/06/01 04:16:26;;;;;;;32.63;1.87;;;;;;;25.01;41.43;99673.75;7314116;19;129120;-42
2023/06/01 04:18:52;;;;;;;38.43;2.10;;;;;;;25.04;41.38;99673.47;7313367;19;129784;-40
2023/06/01 04:21:20;;;;;;;50.13;2.60;;;;;;;24.96;42.28;99676.03;7312649;19;129964;-39
2023/06/01 04:23:45;;;;;;;23.58;1.42;;;;;;;25.03;41.68;99677.06;7312939;19;128948;-41
2023/06/01 04:26:11;;;;;;;39.50;2.23;;;;;;;25.04;42.35;99668.19;7312376;19;130046;-40
2023/06/01 04:28:43;;;;;;;22.20;1.25;;;;;;;24.97;41.63;99673.28;7313652;19;129394;-42
2023/06/01 04:31:16;;;;;;;59.63;3.22;;;;;;;25.05;41.32;99669.84;7310323;19;129879;-40
2023/06/01 04:33:42;;;;;;;26.05;1.50;;;;;;;25.03;41.66;99677.06;7311892;19;128936;-41
2023/06/01 04:36:07;;;;;;;44.47;2.30;;;;;;;25.01;41.19;99676.38;7312319;19;129072;-42
2023/06/01 04:38:34;;;;;;;38.40;2.07;;;;;;;25.02;42.03;99678.88;7310527;19;129279;-41
2023/06/01 04:41:00;;;;;;;57.35;2.95;;;;;;;25.12;40.92;99671.66;7311694;19;129339;-39
2023/06/01 04:43:27;;;;;;;46.03;2.40;;;;;;;25.04;41.68;99668.19;7308088;19;131130;-40
2023/06/01 04:45:52;;;;;;;51.85;2.97;;;;;;;24.98;42.29;99671.44;7303140;19;130850;-40
2023/06/01 04:48:20;;;;;;;16.13;1.60;;;;;;;24.92;41.98;99674.72;7310703;19;130484;-42
2023/06/01 04:50:45;;;;;;;48.55;3.35;;;;;;;25.01;41.46;99676.38;7309973;19;129306;-41
2023/06/01 04:53:10;;;;;;;57.93;4.20;;;;;;;25.15;41.05;99667.88;7312494;19;129476;-41
2023/06/01 04:55:36;;;;;;;30.60;2.37;;;;;;;25.17;40.94;99665.94;7313436;19;129780;-40
2023/06/01 04:58:01;;;;;;;38.93;2.70;;;;;;;25.10;41.00;99668.38;7309244;19;130167;-39
2023/06/01 05:00:26;;;;;;;71.90;4.97;;;;;;;25.10;41.26;99667.53;7311258;19;129796;-41
2023/06/01 05:02:52;;;;;;;52.27;3.33;;;;;;;25.05;41.09;99664.56;7309729;19;129782;-38
2023/06/01 05:05:17;;;;;;;42.27;3.23;;;;;;;25.13;40.67;99661.97;7310028;19;129558;-37
2023/06/01 05:07:43;;;;;;;64.70;4.70;;;;;;;25.15;41.98;99662.63;7309024;19;130144;-38
2023/06/01 05:10:11;;;;;;;93.27;6.13;;;;;;;25.15;42.03;99660.00;7301035;19;131296;-39
2023/06/01 05:12:37;;;;;;;53.53;4.28;;;;;;;25.10;41.61;99664.91;7305034;19;129619;-39
2023/06/01 05:15:05;;;;;;;64.70;4.67;;;;;;;25.15;41.72;99666.09;7299132;19;131540;-39
2023/06/01 05:17:31;;;;;;;36.00;3.17;;;;;;;25.24;41.19;99659.00;7309668;19;130361;-38
2023/06/01 05:19:59;;;;;;;80.77;5.47;;;;;;;25.22;41.28;99656.53;7301288;19;129447;-38
2023/06/01 05:22:25;;;;;;;20.75;2.47;;;;;;;25.16;42.21;99656.38;7307951;19;129606;-38
2023/06/01 05:24:51;;;;;;;73.90;5.03;;;;;;;25.16;41.38;99656.38;7310216;19;130033;-38
2023/06/01 05:27:16;;;;;;;44.70;3.50;;;;;;;25.18;41.46;99660.50;7311016;19;129549;-39
2023/06/01 05:29:41;;;;;;;49.70;4.27;;;;;;;25.22;41.81;99653.13;7311388;19;129459;-38
2023/06/01 05:32:08;;;;;;;40.77;3.40;;;;;;;25.24;42.17;99657.22;7309156;19;129047;-38
2023/06/01 05:34:33;;;;;;;59.03;4.35;;;;;;;25.15;41.92;99654.72;7312841;19;129616;-38
2023/06/01 05:37:02;;;;;;;36.40;3.58;;;;;;;25.16;41.64;99651.09;7307320;19;130295;-37
2023/06/01 05:39:28;;;;;;;100.30;6.73;;;;;;;25.17;42.13;99664.09;7306217;19;129624;-38
2023/06/01 05:41:54;;;;;;;38.83;3.50;;;;;;;25.11;41.67;99671.81;7309726;19;129002;-38
2023/06/01 05:44:20;;;;;;;37.70;4.03;;;;;;;25.00;41.67;99666.84;7312007;19;129310;-37
2023/06/01 05:46:45;;;;;;;34.47;3.20;;;;;;;25.02;42.47;99667.53;7308489;19;129083;-38
2023/06/01 05:49:10;;;;;;;48.77;3.67;;;;;;;25.06;42.02;99667.03;7312465;19;130565;-38
2023/06/01 05:51:40;;;;;;;38.40;3.20;;;;;;;25.05;42.14;99665.41;7310695;19;129577;-39
2023/06/01 05:54:05;;;;;;;45.75;4.10;;;;;;;24.85;42.05;99647.41;7312126;19;130091;-39
2023/06/01 05:56:30;;;;;;;43.00;3.73;;;;;;;24.95;41.69;99669.13;7310649;19;130291;-38
2023/06/01 05:58:56;;;;;;;73.53;5.47;;;;;;;25.05;41.91;99656.69;7311390;19;130436;-38
2023/06/01 06:01:22;;;;;;;43.67;3.57;;;;;;;24.98;41.66;99660.94;7309596;19;130079;-38
2023/06/01 06:03:48;;;;;;;31.67;3.20;;;;;;;25.04;42.61;99655.84;7308583;19;129243;-37
2023/06/01 06:06:13;;;;;;;45.47;3.67;;;;;;;25.08;41.35;99658.97;7311128;19;129009;-38
2023/06/01 06:08:38;;;;;;;39.87;3.93;;;;;;;25.11;41.94;99642.88;7312274;19;130127;-38
2023/06/01 06:11:04;;;;;;;43.80;3.97;;;;;;;25.26;42.19;99655.25;7310106;19;129489;-38
2023/06/01 06:13:29;;;;;;;16.93;1.83;;;;;;;25.28;42.19;99650.66;7308999;19;128849;-38
2023/06/01 06:15:55;;;;;;;52.73;3.77;;;;;;;25.33;43.27;99650.16;7311090;19;130023;-39
2023/06/01 06:18:21;;;;;;;34.58;3.38;;;;;;;25.24;44.24;99648.50;7305908;19;130203;-39
2023/06/01 06:20:46;;;;;;;29.90;3.13;;;;;;;25.26;44.69;99651.78;7311184;19;129572;-38
2023/06/01 06:23:12;;;;;;;55.17;4.27;;;;;;;25.23;44.63;99647.69;7307260;19;129257;-38
2023/06/01 06:25:39;;;;;;;56.63;3.90;;;;;;;25.16;45.26;99635.31;7312612;19;130225;-38
2023/06/01 06:28:05;;;;;;;16.10;2.45;;;;;;;25.28;45.50;99655.09;7318517;19;129371;-38
2023/06/01 06:30:30;;;;;;;63.50;5.23;;;;;;;25.28;46.02;99648.03;7315146;19;129439;-39
2023/06/01 06:32:56;;;;;;;11.63;2.10;;;;;;;25.34;46.07;99654.44;7316214;19;130534;-38
2023/06/01 06:35:21;;;;;;;85.87;5.60;;;;;;;25.32;45.79;99645.91;7316422;19;129713;-38
2023/06/01 06:37:47;;;;;;;33.13;2.87;;;;;;;25.34;45.85;99650.00;7317958;19;129598;-38
2023/06/01 06:40:12;;;;;;;63.43;5.00;;;;;;;25.33;45.62;99647.53;7313468;19;129480;-38
2023/06/01 06:42:37;;;;;;;44.37;3.40;;;;;;;25.25;46.37;99634.38;7316170;19;128999;-38
2023/06/01 06:45:04;;;;;;;73.40;5.20;;;;;;;25.35;45.49;99640.34;7316993;19;129478;-38
2023/06/01 06:47:30;;;;;;;45.28;3.58;;;;;;;25.31;46.99;99645.06;7318483;19;130325;-38
2023/06/01 06:49:56;;;;;;;33.77;3.17;;;;;;;25.31;46.99;99644.22;7317933;19;129574;-39
2023/06/01 06:52:22;;;;;;;43.60;3.25;;;;;;;25.33;46.31;99645.72;7315851;19;129040;-38
2023/06/01 06:54:47;;;;;;;75.03;5.03;;;;;;;25.38;46.95;99650.53;7316778;19;129339;-39
2023/06/01 06:57:13;;;;;;;18.87;2.13;;;;;;;25.37;46.18;99651.53;7316806;19;129740;-38
2023/06/01 06:59:38;;;;;;;35.60;3.83;;;;;;;25.32;46.70;99640.63;7315702;19;128825;-39
2023/06/01 07:02:04;;;;;;;45.10;3.30;;;;;;;25.37;46.64;99641.81;7314550;19;130379;-41
2023/06/01 07:04:30;;;;;;;37.97;3.07;;;;;;;25.38;47.49;99642.63;7317722;19;129030;-39
2023/06/01 07:06:55;;;;;;;41.47;3.37;;;;;;;25.38;47.12;99640.00;7317238;19;130687;-41
2023/06/01 07:09:21;;;;;;;37.13;2.63;;;;;;;25.39;47.21;99636.38;7317610;19;129540;-42
2023/06/01 07:11:47;;;;;;;48.03;3.33;;;;;;;25.40;47.65;99643.31;7312659;19;130176;-39
2023/06/01 07:14:13;;;;;;;36.45;2.83;;;;;;;25.38;47.93;99632.94;7317545;19;130888;-40
2023/06/01 07:16:38;;;;;;;33.13;3.00;;;;;;;25.31;47.83;99623.16;7316374;19;129617;-40
2023/06/01 07:19:04;;;;;;;26.80;2.23;;;;;;;25.39;48.21;99634.56;7316655;19;128754;-41
2023/06/01 07:21:29;;;;;;;51.20;3.50;;;;;;;25.41;47.88;99635.25;7316041;19;129685;-41
2023/06/01 07:23:55;;;;;;;66.43;4.73;;;;;;;25.40;47.25;99640.66;7315913;19;129154;-40
2023/06/01 07:26:22;;;;;;;30.27;2.65;;;;;;;25.37;47.14;99635.72;7317223;19;130369;-40
2023/06/01 07:28:52;;;;;;;41.03;3.17;;;;;;;25.34;47.55;99634.19;7315759;19;129007;-41
2023/06/01 07:31:18;;;;;;;42.65;3.00;;;;;;;25.31;48.07;99628.44;7315874;19;130063;-41
2023/06/01 07:33:43;;;;;;;31.83;2.60;;;;;;;25.34;47.95;99622.84;7313580;19;130664;-39
2023/06/01 07:36:09;;;;;;;30.30;3.00;;;;;;;25.35;47.58;99625.34;7315308;19;129603;-40
2023/06/01 07:38:34;;;;;;;46.10;3.87;;;;;;;25.37;47.65;99622.56;7313206;19;128998;-42
2023/06/01 07:41:00;;;;;;;49.30;3.67;;;;;;;25.39;48.22;99620.56;7314766;19;128976;-42
2023/06/01 07:43:25;;;;;;;33.70;3.03;;;;;;;25.39;48.63;99620.56;7314613;19;130233;-40
2023/06/01 07:45:50;;;;;;;66.93;5.17;;;;;;;25.38;49.11;99614.50;7314411;19;131280;-42
2023/06/01 07:48:16;;;;;;;34.13;2.63;;;;;;;25.38;48.29;99614.50;7315515;19;129189;-41
2023/06/01 07:50:41;;;;;;;42.30;3.40;;;;;;;25.39;48.53;99625.84;7308982;19;131859;-39
2023/06/01 07:53:08;;;;;;;37.47;2.95;;;;;;;25.38;48.35;99622.41;7313898;19;130250;-40
2023/06/01 07:55:34;;;;;;;60.10;4.35;;;;;;;25.37;48.81;99622.56;7314474;19;131204;-39
2023/06/01 07:57:59;;;;;;;38.70;2.87;;;;;;;25.29;48.61;99599.66;7313538;19;128812;-42
2023/06/01 08:00:26;;;;;;;95.13;6.07;;;;;;;25.35;48.74;99619.28;7312392;19;129648;-40
2023/06/01 08:02:52;;;;;;;27.55;2.42;;;;;;;25.39;48.74;99625.84;7312451;19;130216;-42
2023/06/01 08:05:18;;;;;;;34.72;2.63;;;;;;;25.39;47.99;99617.94;7314665;19;130283;-41
2023/06/01 08:07:45;;;;;;;52.20;3.80;;;;;;;25.27;49.41;99601.63;7313851;19;130719;-41
2023/06/01 08:10:13;;;;;;;52.78;3.63;;;;;;;25.35;48.55;99619.28;7314317;19;129278;-40
2023/06/01 08:12:39;;;;;;;32.20;2.50;;;;;;;25.35;48.80;99614.00;7312913;19;129875;-40
2023/06/01 08:15:05;;;;;;;36.10;2.77;;;;;;;25.34;49.42;99615.78;7314698;19;129723;-41
2023/06/01 08:17:31;;;;;;;40.78;3.08;;;;;;;25.34;48.97;99610.53;7314796;19;129307;-39
2023/06/01 08:19:56;;;;;;;40.93;2.93;;;;;;;25.36;49.14;99610.38;7313119;19;129568;-40
2023/06/01 08:22:23;;;;;;;36.53;3.20;;;;;;;25.40;49.52;99607.25;7312338;19;130048;-41
2023/06/01 08:24:48;;;;;;;37.38;3.08;;;;;;;25.37;49.30;99606.78;7314118;19;129407;-41
2023/06/01 08:27:22;;;;;;;68.33;4.40;;;;;;;25.23;50.09;99579.25;7313742;19;129648;-41
2023/06/01 08:29:49;;;;;;;46.47;3.15;;;;;;;25.28;48.95;99582.22;7313990;19;129389;-41
2023/06/01 08:32:16;;;;;;;37.22;2.88;;;;;;;25.41;48.80;99600.19;7313175;19;131121;-39
2023/06/01 08:34:43;;;;;;;36.08;3.05;;;;;;;25.37;49.53;99596.25;7313764;19;129680;-39
2023/06/01 08:37:09;;;;;;;28.67;2.35;;;;;;;25.28;49.94;99578.75;7313265;19;128892;-42
2023/06/01 08:39:34;;;;;;;51.60;3.37;;;;;;;25.37;48.94;99586.53;7312748;19;129584;-40
2023/06/01 08:42:02;;;;;;;39.87;2.77;;;;;;;25.40;50.04;99585.41;7312958;19;129486;-40
2023/06/01 08:44:39;;;;;;;31.05;2.58;;;;;;;25.32;49.81;99588.78;7314653;19;129312;-41
2023/06/01 08:47:05;;;;;;;70.07;4.73;;;;;;;25.42;49.42;99588.69;7313166;19;129551;-42
2023/06/01 08:49:32;;;;;;;56.13;3.87;;;;;;;25.37;49.94;99572.56;7309499;19;129259;-39
2023/06/01 08:51:59;;;;;;;;;;;;;;;25.41;50.64;99584.41;7314125;19;129328;-40
2023/06/01 08:54:25;;;;;;;34.13;2.80;;;;;;;25.37;49.16;99583.91;7313336;19;130364;-41
2023/06/01 08:56:50;;;;;;;57.13;4.15;;;;;;;25.37;49.08;99586.53;7312358;19;129004;-37
2023/06/01 08:59:15;;;;;;;46.37;3.23;;;;;;;25.37;49.83;99581.25;7313666;19;128917;-41
2023/06/01 09:01:42;;;;;;;59.90;4.03;;;;;;;25.38;48.98;99582.09;7312446;19;129349;-42
2023/06/01 09:04:09;;;;;;;60.55;4.28;;;;;;;25.34;50.53;99581.56;7311770;19;130042;-41
2023/06/01 09:06:36;;;;;;;31.13;2.45;;;;;;;25.33;49.60;99574.66;7313454;19;129367;-39
2023/06/01 09:09:02;;;;;;;75.72;4.68;;;;;;;25.38;49.78;99566.31;7312115;19;129378;-41
2023/06/01 09:11:27;;;;;;;64.83;4.10;;;;;;;25.24;49.61;99554.59;7312793;19;129381;-41
2023/06/01 09:13:53;;;;;;;19.37;1.90;;;;;;;25.36;49.96;99573.53;7309226;19;129704;-40
2023/06/01 09:16:18;;;;;;;28.90;2.33;;;;;;;25.38;49.48;99567.13;7313507;19;129532;-40
2023/06/01 09:18:54;;;;;;;57.00;4.03;;;;;;;25.35;50.63;99572.69;7312196;19;129367;-40
2023/06/01 09:21:20;;;;;;;36.47;2.75;;;;;;;25.37;50.02;99572.56;7313235;19;129047;-39
2023/06/01 09:23:47;;;;;;;31.55;2.22;;;;;;;25.34;50.37;99567.56;7310027;19;130605;-40
2023/06/01 09:26:14;;;;;;;32.20;2.63;;;;;;;25.24;50.55;99551.13;7312736;19;128853;-41
2023/06/01 09:28:54;;;;;;;52.65;3.47;;;;;;;25.26;51.02;99547.34;7310208;19;128919;-39
2023/06/01 09:31:45;;;;;;;49.22;3.38;;;;;;;25.36;50.71;99547.22;7313182;19;129449;-41
2023/06/01 09:34:17;;;;;;;65.32;3.83;;;;;;;25.36;50.43;99557.75;7308588;19;130122;-41
2023/06/01 09:36:43;;;;;;;62.13;3.85;;;;;;;25.33;50.88;99548.34;7313243;19;128931;-40
2023/06/01 09:39:16;;;;;;;61.90;4.33;;;;;;;25.38;50.74;99561.03;7309466;19;129308;-41
2023/06/01 09:41:58;;;;;;;52.10;3.42;;;;;;;25.39;50.76;99554.78;7309186;19;129690;-40
2023/06/01 09:44:30;;;;;;;32.72;2.53;;;;;;;25.34;50.57;99551.78;7312205;19;129127;-39
2023/06/01 09:47:09;;;;;;;46.90;3.08;;;;;;;25.38;50.76;99551.34;7309572;19;129679;-39
2023/06/01 09:49:39;;;;;;;45.58;3.33;;;;;;;25.33;50.90;99548.34;7312763;19;129442;-40
2023/06/01 09:52:04;;;;;;;46.95;3.15;;;;;;;25.36;50.13;99555.94;7307944;19;131614;-40
2023/06/01 09:54:37;;;;;;;30.37;2.37;;;;;;;25.34;51.26;99549.97;7312232;19;129703;-42
2023/06/01 09:57:04;;;;;;;45.67;3.03;;;;;;;25.32;50.23;99556.41;7308702;19;129613;-40
2023/06/01 09:59:37;;;;;;;36.50;2.70;;;;;;;25.29;50.52;99548.81;7310249;19;129050;-41
2023/06/01 10:02:04;;;;;;;56.20;3.42;;;;;;;25.32;50.55;99557.22;7315924;19;129155;-42
2023/06/01 10:04:29;;;;;;;41.10;3.05;;;;;;;25.35;50.12;99550.84;7318815;19;131367;-42
2023/06/01 10:06:56;;;;;;;33.37;2.60;;;;;;;25.31;50.46;99545.06;7317928;19;128937;-40
2023/06/01 10:09:24;;;;;;;27.05;2.08;;;;;;;25.37;50.05;99543.63;7315105;19;130205;-42
2023/06/01 10:11:53;;;;;;;48.08;2.97;;;;;;;25.32;48.96;99530.09;7316462;19;128992;-42
2023/06/01 10:14:19;;;;;;;34.88;2.30;;;;;;;25.30;49.70;99537.31;7317831;19;130163;-40
2023/06/01 10:16:44;;;;;;;35.10;2.37;;;;;;;25.33;49.31;99542.25;7318125;19;128790;-39
2023/06/01 10:19:11;;;;;;;31.20;2.57;;;;;;;25.30;49.78;99532.88;7316368;19;129669;-41
2023/06/01 10:21:39;;;;;;;42.13;3.13;;;;;;;25.31;49.54;99538.97;7317036;19;130742;-41
2023/06/01 10:24:06;;;;;;;19.50;1.95;;;;;;;25.32;49.44;99535.34;7319052;19;129314;-40
2023/06/01 10:26:41;;;;;;;27.17;2.17;;;;;;;25.28;49.73;99541.94;7318617;19;129127;-39
2023/06/01 10:29:08;;;;;;;56.55;4.18;;;;;;;25.27;48.96;99535.81;7312775;19;130177;-42
2023/06/01 10:31:41;;;;;;;39.03;3.00;;;;;;;25.26;50.14;99530.72;7316672;19;130761;-40
2023/06/01 10:34:12;;;;;;;78.25;5.20;;;;;;;25.24;48.36;99527.44;7318500;19;129524;-41
2023/06/01 10:36:53;;;;;;;26.63;2.17;;;;;;;25.20;50.36;99526.13;7319116;19;129769;-40
2023/06/01 10:39:28;;;;;;;31.58;2.50;;;;;;;25.24;49.74;99530.91;7317077;19;129034;-39
2023/06/01 10:41:56;;;;;;;87.22;5.65;;;;;;;25.21;48.84;99522.50;7315136;19;129179;-39
2023/06/01 10:44:39;;;;;;;28.80;2.47;;;;;;;25.22;50.02;99517.06;7316882;19;130330;-41
2023/06/01 10:47:05;;;;;;;75.32;4.82;;;;;;;25.18;48.94;99512.31;7315535;19;129099;-41
2023/06/01 10:49:49;;;;;;;22.17;2.63;;;;;;;25.25;50.82;99513.31;7317840;19;129368;-41
2023/06/01 10:52:35;;;;;;;96.97;5.85;;;;;;;25.25;50.42;99508.88;7313635;19;129335;-39
2023/06/01 10:55:06;;;;;;;54.50;4.53;;;;;;;25.26;50.34;99512.31;7316243;19;131323;-41
2023/06/01 10:57:35;;;;;;;46.30;3.60;;;;;;;25.24;50.48;99520.38;7315784;19;129114;-41
2023/06/01 11:00:18;;;;;;;34.80;3.15;;;;;;;25.19;51.04;99498.16;7311359;19;129297;-40
2023/06/01 11:03:01;;;;;;;77.10;5.00;;;;;;;25.27;50.97;99508.72;7315050;19;129443;-42
2023/06/01 11:05:39;;;;;;;33.22;2.65;;;;;;;25.29;51.12;99514.59;7316330;19;129397;-40
2023/06/01 11:08:05;;;;;;;;;;;;;;;25.34;50.51;99517.56;7316987;19;129007;-42
2023/06/01 11:11:03;;;;;;;75.63;4.97;;;;;;;25.31;51.27;99502.13;7315538;19;130181;-40
2023/06/01 11:13:36;;;;;;;34.17;3.05;;;;;;;25.31;51.13;99502.94;7310942;19;129242;-40
2023/06/01 11:16:12;;;;;;;52.40;3.63;;;;;;;25.30;51.01;99497.84;7316358;19;129077;-39
2023/06/01 11:18:41;;;;;;;54.55;3.83;;;;;;;25.32;50.77;99498.50;7315677;19;129487;-41
2023/06/01 11:21:12;;;;;;;43.97;3.33;;;;;;;25.32;50.05;99488.00;7314029;19;128913;-42